Bw Wren — 9V2927 — position and weather

sailwx.info

Track history (hours):
 
Tides and Currents Weather Stations Pressure Air Temp Water Temp Dewpoint Dewpoint Depression Visibility Wind Speed Wind Dir Waves Ship Positions

Bw Wren

Last reported at 2018-Feb-13 01:26 UTC. Time now 2018-Feb-23 18:33 UTC.
Position N 01°13' E 103°31'.
Warning: this ship's position is 10 days out of date.

Length 183 m; draft 10.6 m.

Type: Ship. MMSI: 563889000.

Date/timePositionNaut miles runAvg speedWind from/ knotsBaromVisibWave heightAir tempDewpointWater temp
2018-Feb-13 01:26N 01°13' E 103°31'613.7
2018-Feb-13 01:00N 01°11' E 103°37'713.7
2018-Feb-13 00:30N 01°08' E 103°43'714.5
2018-Feb-13 00:00N 01°11' E 103°50'714.3
2018-Feb-12 23:30N 01°14' E 103°56'713.8
2018-Feb-12 22:59N 01°16' E 104°03'4 5.2
2018-Feb-12 22:15N 01°19' E 104°05'8 6.3
2018-Feb-12 20:55N 01°26' E 104°01'6 0.2
2018-Feb-11 18:46N 01°21' E 104°03'2 8.9
2018-Feb-11 18:30N 01°20' E 104°05'2 4.1
2018-Feb-11 17:59N 01°19' E 104°07'0 0.0
2018-Feb-10 23:27N 01°19' E 104°07'0 0.0
2018-Feb-10 20:07N 01°19' E 104°07'0 0.0
2018-Feb-10 19:54N 01°19' E 104°07'0 0.0
2018-Feb-10 14:35N 01°18' E 104°07'0 1.4
2018-Feb-10 14:23N 01°18' E 104°07'1 2.8
2018-Feb-10 13:55N 01°18' E 104°06'3 5.7
2018-Feb-10 13:28N 01°16' E 104°04'4 8.2
2018-Feb-10 13:01N 01°15' E 104°01'5 9.2
2018-Feb-10 12:30N 01°13' E 103°56'5 9.1
2018-Feb-10 11:59N 01°11' E 103°52'3 6.3
2018-Feb-10 11:28N 01°13' E 103°49'1 2.3
2018-Feb-10 10:56N 01°14' E 103°48'0 0.0
2018-Feb-10 10:26N 01°14' E 103°48'0 0.0
2018-Feb-10 09:59N 01°14' E 103°48'0 0.1
2018-Feb-10 09:29N 01°14' E 103°48'0 0.2
2018-Feb-10 08:59N 01°13' E 103°48'0 0.0
2018-Feb-10 08:29N 01°13' E 103°48'0 0.0
2018-Feb-10 07:59N 01°13' E 103°48'0 0.1
2018-Feb-10 07:29N 01°13' E 103°48'0 0.0
2018-Feb-10 06:53N 01°13' E 103°48'0 0.2
2018-Feb-10 06:29N 01°14' E 103°48'0 0.0
2018-Feb-10 05:59N 01°14' E 103°48'0 0.0
2018-Feb-10 05:29N 01°14' E 103°48'0 0.1
2018-Feb-10 04:59N 01°13' E 103°48'0 0.1
2018-Feb-10 04:29N 01°13' E 103°48'0 0.8
2018-Feb-10 04:00N 01°13' E 103°49'4 6.9
2018-Feb-10 03:29N 01°13' E 103°52'510.1
2018-Feb-10 03:00N 01°15' E 103°57'4 7.0
2018-Feb-10 02:30N 01°16' E 104°00'  
Track history (hours):
 
Tides and Currents Weather Stations Pressure Air Temp Water Temp Dewpoint Dewpoint Depression Visibility Wind Speed Wind Dir Waves Ship Positions

Bw Wren

Last reported at 2018-Feb-13 01:26 UTC. Time now 2018-Feb-23 18:33 UTC.
Position N 01°13' E 103°31'.
Warning: this ship's position is 10 days out of date.

Length 183 m; draft 10.6 m.

Type: Ship. MMSI: 563889000.

Date/timePositionNaut miles runAvg speedWind from/ knotsBaromVisibWave heightAir tempDewpointWater temp
2018-Feb-13 01:26N 01°13' E 103°31'613.7
2018-Feb-13 01:00N 01°11' E 103°37'713.7
2018-Feb-13 00:30N 01°08' E 103°43'714.5
2018-Feb-13 00:00N 01°11' E 103°50'714.3
2018-Feb-12 23:30N 01°14' E 103°56'713.8
2018-Feb-12 22:59N 01°16' E 104°03'4 5.2
2018-Feb-12 22:15N 01°19' E 104°05'8 6.3
2018-Feb-12 20:55N 01°26' E 104°01'6 0.2
2018-Feb-11 18:46N 01°21' E 104°03'2 8.9
2018-Feb-11 18:30N 01°20' E 104°05'2 4.1
2018-Feb-11 17:59N 01°19' E 104°07'0 0.0
2018-Feb-10 23:27N 01°19' E 104°07'0 0.0
2018-Feb-10 20:07N 01°19' E 104°07'0 0.0
2018-Feb-10 19:54N 01°19' E 104°07'0 0.0
2018-Feb-10 14:35N 01°18' E 104°07'0 1.4
2018-Feb-10 14:23N 01°18' E 104°07'1 2.8
2018-Feb-10 13:55N 01°18' E 104°06'3 5.7
2018-Feb-10 13:28N 01°16' E 104°04'4 8.2
2018-Feb-10 13:01N 01°15' E 104°01'5 9.2
2018-Feb-10 12:30N 01°13' E 103°56'5 9.1
2018-Feb-10 11:59N 01°11' E 103°52'3 6.3
2018-Feb-10 11:28N 01°13' E 103°49'1 2.3
2018-Feb-10 10:56N 01°14' E 103°48'0 0.0
2018-Feb-10 10:26N 01°14' E 103°48'0 0.0
2018-Feb-10 09:59N 01°14' E 103°48'0 0.1
2018-Feb-10 09:29N 01°14' E 103°48'0 0.2
2018-Feb-10 08:59N 01°13' E 103°48'0 0.0
2018-Feb-10 08:29N 01°13' E 103°48'0 0.0
2018-Feb-10 07:59N 01°13' E 103°48'0 0.1
2018-Feb-10 07:29N 01°13' E 103°48'0 0.0
2018-Feb-10 06:53N 01°13' E 103°48'0 0.2
2018-Feb-10 06:29N 01°14' E 103°48'0 0.0
2018-Feb-10 05:59N 01°14' E 103°48'0 0.0
2018-Feb-10 05:29N 01°14' E 103°48'0 0.1
2018-Feb-10 04:59N 01°13' E 103°48'0 0.1
2018-Feb-10 04:29N 01°13' E 103°48'0 0.8
2018-Feb-10 04:00N 01°13' E 103°49'4 6.9
2018-Feb-10 03:29N 01°13' E 103°52'510.1
2018-Feb-10 03:00N 01°15' E 103°57'4 7.0
2018-Feb-10 02:30N 01°16' E 104°00'  

Dump ship's entire track history